createdAt,value
2018-01-30T00:01:55.095Z,87.60
2018-01-30T00:04:22.838Z,87.60
2018-01-30T00:06:50.820Z,87.50
2018-01-30T00:09:18.539Z,87.50
2018-01-30T00:11:46.261Z,87.90
2018-01-30T00:14:13.973Z,88.10
2018-01-30T00:16:41.748Z,88.10
2018-01-30T00:19:09.426Z,88.00
2018-01-30T00:21:37.194Z,88.00
2018-01-30T00:24:04.974Z,87.80
2018-01-30T00:26:32.879Z,87.80
2018-01-30T00:29:00.567Z,87.60
2018-01-30T00:31:28.231Z,87.50
2018-01-30T00:33:55.873Z,87.60
2018-01-30T00:36:23.607Z,87.70
2018-01-30T00:38:51.377Z,87.70
2018-01-30T00:41:19.088Z,87.60
2018-01-30T00:43:47.672Z,87.80
2018-01-30T00:46:15.344Z,87.70
2018-01-30T00:48:43.840Z,87.60
2018-01-30T00:51:11.668Z,87.60
2018-01-30T00:53:39.390Z,87.40
2018-01-30T00:56:07.111Z,87.40
2018-01-30T00:58:34.763Z,87.40
2018-01-30T01:01:02.460Z,87.30
2018-01-30T01:03:30.528Z,87.20
2018-01-30T01:05:58.295Z,87.20
2018-01-30T01:08:25.985Z,87.10
2018-01-30T01:10:53.685Z,87.20
2018-01-30T01:13:21.357Z,87.20
2018-01-30T01:15:49.055Z,87.10
2018-01-30T01:18:16.755Z,87.10
2018-01-30T01:20:44.370Z,86.70
2018-01-30T01:23:12.123Z,86.70
2018-01-30T01:25:41.067Z,86.20
2018-01-30T01:28:09.807Z,86.20
2018-01-30T01:30:37.450Z,86.00
2018-01-30T01:33:05.155Z,86.10
2018-01-30T01:35:32.863Z,86.40
2018-01-30T01:38:00.999Z,87.10
2018-01-30T01:40:28.721Z,87.10
2018-01-30T01:42:56.341Z,87.60
2018-01-30T01:45:24.091Z,87.90
2018-01-30T01:47:51.790Z,88.00
2018-01-30T01:50:19.470Z,87.90
2018-01-30T01:52:47.192Z,87.90
2018-01-30T01:55:15.332Z,88.10
2018-01-30T01:57:42.983Z,88.10
2018-01-30T02:00:10.714Z,88.00
2018-01-30T02:02:38.452Z,87.70
2018-01-30T02:05:06.567Z,87.60
2018-01-30T02:07:34.238Z,87.60
2018-01-30T02:10:01.967Z,87.50
2018-01-30T02:12:29.702Z,87.40
2018-01-30T02:14:57.887Z,87.40
2018-01-30T02:17:25.670Z,87.70
2018-01-30T02:19:53.790Z,87.90
2018-01-30T02:22:21.451Z,87.90
2018-01-30T02:24:49.159Z,88.00
2018-01-30T02:27:17.108Z,87.90
2018-01-30T02:29:44.854Z,87.80
2018-01-30T02:32:12.569Z,87.70
2018-01-30T02:34:40.426Z,87.50
2018-01-30T02:37:08.112Z,87.50
2018-01-30T02:39:35.817Z,87.40
2018-01-30T02:42:03.472Z,87.60
2018-01-30T02:44:31.171Z,87.90
2018-01-30T02:46:58.830Z,88.20
2018-01-30T02:49:26.865Z,89.00
2018-01-30T02:51:54.491Z,89.00
2018-01-30T02:54:22.155Z,89.00
2018-01-30T02:56:49.827Z,88.80
2018-01-30T02:59:19.545Z,88.70
2018-01-30T03:01:47.281Z,88.60
2018-01-30T03:04:15.743Z,88.30
2018-01-30T03:06:44.290Z,88.20
2018-01-30T03:09:12.047Z,88.00
2018-01-30T03:11:39.727Z,87.90
2018-01-30T03:14:07.434Z,87.90
2018-01-30T03:16:35.357Z,87.70
2018-01-30T03:19:03.055Z,87.60
2018-01-30T03:21:30.745Z,87.50
2018-01-30T03:23:58.507Z,87.30
2018-01-30T03:26:26.161Z,87.30
2018-01-30T03:28:53.942Z,87.10
2018-01-30T03:31:21.648Z,87.10
2018-01-30T03:33:49.699Z,87.00
2018-01-30T03:36:17.378Z,87.00
2018-01-30T03:38:45.104Z,86.90
2018-01-30T03:41:13.047Z,87.50
2018-01-30T03:43:40.729Z,87.90
2018-01-30T03:46:08.472Z,88.10
2018-01-30T03:48:36.153Z,88.20
2018-01-30T03:51:03.892Z,88.40
2018-01-30T03:53:31.651Z,88.30
2018-01-30T03:55:59.370Z,88.30
2018-01-30T03:58:27.108Z,88.20
2018-01-30T04:00:54.812Z,88.10
2018-01-30T04:03:22.413Z,88.10
2018-01-30T04:05:50.043Z,88.10
2018-01-30T04:08:17.718Z,87.90
2018-01-30T04:10:45.442Z,87.90
2018-01-30T04:13:13.510Z,87.70
2018-01-30T04:15:41.175Z,87.70
2018-01-30T04:18:08.815Z,87.90
2018-01-30T04:20:36.515Z,87.70
2018-01-30T04:23:05.018Z,87.70
2018-01-30T04:25:32.676Z,87.50
2018-01-30T04:28:00.453Z,87.40
2018-01-30T04:30:28.229Z,87.30
2018-01-30T04:32:55.971Z,87.10
2018-01-30T04:35:23.646Z,87.10
2018-01-30T04:37:51.279Z,87.20
2018-01-30T04:40:18.937Z,87.00
2018-01-30T04:42:46.735Z,87.20
2018-01-30T04:45:15.695Z,87.60
2018-01-30T04:47:43.469Z,87.70
2018-01-30T04:50:11.173Z,87.50
2018-01-30T04:52:39.435Z,87.40
2018-01-30T04:55:07.197Z,87.40
2018-01-30T04:57:34.902Z,87.50
2018-01-30T05:00:02.555Z,88.30
2018-01-30T05:02:30.163Z,88.70
2018-01-30T05:04:58.571Z,88.80
2018-01-30T05:07:26.670Z,88.60
2018-01-30T05:09:54.272Z,88.60
2018-01-30T05:12:22.002Z,88.60
2018-01-30T05:14:49.730Z,88.70
2018-01-30T05:17:17.852Z,88.80
2018-01-30T05:19:45.482Z,88.80
2018-01-30T05:22:13.157Z,88.70
2018-01-30T05:24:40.846Z,88.70
2018-01-30T05:27:08.532Z,88.60
2018-01-30T05:29:36.267Z,88.60
2018-01-30T05:32:03.995Z,88.20
2018-01-30T05:34:31.571Z,88.30
2018-01-30T05:36:59.232Z,88.30
2018-01-30T05:39:27.770Z,88.10
2018-01-30T05:41:55.868Z,88.20
2018-01-30T05:44:23.693Z,88.20
2018-01-30T05:46:51.319Z,88.10
2018-01-30T05:49:20.145Z,88.10
2018-01-30T05:51:47.775Z,88.00
2018-01-30T05:54:15.360Z,87.80
2018-01-30T05:56:42.999Z,87.90
2018-01-30T05:59:10.611Z,87.70
2018-01-30T06:01:38.850Z,87.60
2018-01-30T06:04:06.528Z,87.40
2018-01-30T06:06:34.210Z,87.50
2018-01-30T06:09:01.971Z,87.40
2018-01-30T06:11:30.355Z,87.60
2018-01-30T06:13:57.979Z,87.90
2018-01-30T06:16:25.602Z,87.80
2018-01-30T06:18:53.207Z,87.80
2018-01-30T06:21:22.095Z,87.70
2018-01-30T06:23:50.224Z,88.00
2018-01-30T06:26:18.980Z,88.00
2018-01-30T06:28:46.747Z,88.00
2018-01-30T06:31:14.415Z,87.90
2018-01-30T06:33:42.126Z,87.90
2018-01-30T06:36:09.795Z,88.00
2018-01-30T06:38:38.664Z,88.10
2018-01-30T06:41:06.353Z,88.00
2018-01-30T06:43:33.983Z,88.00
2018-01-30T06:46:01.642Z,88.00
2018-01-30T06:48:29.433Z,88.10
2018-01-30T06:50:57.199Z,87.90
2018-01-30T06:53:24.778Z,87.70
2018-01-30T06:55:52.378Z,87.60
2018-01-30T06:58:20.095Z,87.60
2018-01-30T07:00:47.739Z,87.60
2018-01-30T07:03:16.072Z,87.60
2018-01-30T07:05:43.756Z,87.60
2018-01-30T07:08:11.350Z,87.50
2018-01-30T07:10:38.906Z,87.40
2018-01-30T07:13:06.695Z,87.30
2018-01-30T07:15:34.320Z,87.30
2018-01-30T07:18:06.899Z,87.00
2018-01-30T07:20:34.586Z,87.00
2018-01-30T07:23:02.915Z,87.40
2018-01-30T07:25:30.558Z,87.70
2018-01-30T07:27:58.189Z,87.60
2018-01-30T07:30:25.806Z,87.40
2018-01-30T07:32:53.404Z,87.30
2018-01-30T07:35:21.013Z,87.10
2018-01-30T07:37:48.561Z,86.90
2018-01-30T07:40:16.147Z,86.90
2018-01-30T07:42:43.692Z,86.80
2018-01-30T07:45:11.433Z,86.80
2018-01-30T07:47:39.032Z,86.60
2018-01-30T07:50:06.975Z,86.30
2018-01-30T07:52:35.538Z,86.10
2018-01-30T07:55:03.187Z,86.20
2018-01-30T07:57:30.743Z,86.70
2018-01-30T07:59:58.301Z,86.60
2018-01-30T08:02:25.952Z,86.40
2018-01-30T08:04:53.649Z,86.60
2018-01-30T08:07:21.312Z,85.90
2018-01-30T08:09:49.986Z,85.70
2018-01-30T08:12:17.755Z,85.40
2018-01-30T08:14:45.464Z,84.80
2018-01-30T08:17:13.096Z,84.80
2018-01-30T08:19:40.767Z,85.20
2018-01-30T08:22:08.518Z,85.00
2018-01-30T08:24:36.170Z,85.30
2018-01-30T08:27:03.867Z,85.70
2018-01-30T08:29:32.217Z,85.80
2018-01-30T08:31:59.792Z,85.80
2018-01-30T08:34:28.243Z,85.90
2018-01-30T08:36:55.802Z,85.70
2018-01-30T08:39:23.428Z,85.50
2018-01-30T08:41:51.014Z,85.50
2018-01-30T08:44:18.583Z,85.40
2018-01-30T08:46:46.928Z,85.40
2018-01-30T08:49:14.779Z,85.70
2018-01-30T08:51:42.334Z,85.90
2018-01-30T08:54:09.930Z,85.90
2018-01-30T08:56:37.542Z,85.80
2018-01-30T08:59:05.546Z,85.80
2018-01-30T09:01:33.091Z,85.80
2018-01-30T09:04:00.642Z,85.40
2018-01-30T09:06:28.245Z,85.30
2018-01-30T09:08:56.811Z,84.90
2018-01-30T09:11:24.432Z,84.90
2018-01-30T09:13:52.357Z,85.50
2018-01-30T09:16:19.938Z,85.50
2018-01-30T09:18:47.556Z,85.00
2018-01-30T09:21:15.126Z,84.60
2018-01-30T09:23:42.720Z,84.70
2018-01-30T09:26:10.275Z,84.70
2018-01-30T09:28:38.299Z,84.70
2018-01-30T09:31:06.010Z,84.70
2018-01-30T09:33:34.752Z,84.60
2018-01-30T09:36:02.354Z,84.60
2018-01-30T09:38:30.365Z,85.00
2018-01-30T09:40:58.017Z,85.00
2018-01-30T09:43:25.664Z,84.40
2018-01-30T09:45:53.660Z,83.70
2018-01-30T09:48:21.248Z,83.70
2018-01-30T09:50:48.804Z,83.60
2018-01-30T09:53:16.418Z,83.40
2018-01-30T09:55:44.076Z,82.90
2018-01-30T09:58:11.653Z,83.20
2018-01-30T10:00:39.208Z,83.20
2018-01-30T10:03:06.764Z,82.80
2018-01-30T10:05:34.404Z,82.60
2018-01-30T10:08:02.086Z,82.40
2018-01-30T10:10:29.727Z,82.30
2018-01-30T10:12:57.349Z,82.10
2018-01-30T10:15:24.933Z,81.80
2018-01-30T10:17:52.544Z,81.60
2018-01-30T10:20:20.145Z,81.10
2018-01-30T10:22:47.802Z,81.10
2018-01-30T10:25:15.451Z,81.00
2018-01-30T10:27:43.078Z,81.10
2018-01-30T10:30:11.668Z,81.30
2018-01-30T10:32:39.291Z,81.10
2018-01-30T10:35:07.029Z,81.20
2018-01-30T10:37:34.645Z,81.30
2018-01-30T10:40:02.286Z,80.90
2018-01-30T10:42:29.949Z,80.60
2018-01-30T10:44:57.555Z,80.80
2018-01-30T10:47:25.193Z,81.00
2018-01-30T10:49:52.922Z,80.90
2018-01-30T10:52:20.372Z,80.40
2018-01-30T10:54:48.031Z,80.10
2018-01-30T10:57:15.618Z,80.20
2018-01-30T10:59:44.244Z,80.30
2018-01-30T11:02:12.263Z,80.10
2018-01-30T11:04:39.823Z,80.10
2018-01-30T11:07:07.488Z,80.10
2018-01-30T11:09:35.054Z,80.00
2018-01-30T11:12:02.718Z,79.80
2018-01-30T11:14:30.429Z,79.80
2018-01-30T11:16:58.455Z,79.30
2018-01-30T11:19:26.023Z,79.30
2018-01-30T11:21:53.743Z,78.60
2018-01-30T11:24:21.320Z,78.50
2018-01-30T11:26:48.840Z,79.40
2018-01-30T11:29:16.869Z,79.70
2018-01-30T11:31:44.479Z,79.70
2018-01-30T11:34:12.096Z,79.50
2018-01-30T11:36:39.703Z,79.20
2018-01-30T11:39:07.397Z,78.80
2018-01-30T11:41:35.018Z,78.20
2018-01-30T11:44:02.719Z,78.40
2018-01-30T11:46:30.387Z,78.50
2018-01-30T11:48:57.984Z,78.20
2018-01-30T11:51:25.642Z,78.30
2018-01-30T11:53:53.648Z,77.50
2018-01-30T11:56:21.235Z,77.50
2018-01-30T11:58:48.924Z,77.50
2018-01-30T12:01:16.919Z,78.10
2018-01-30T12:03:44.537Z,78.10
2018-01-30T12:06:12.824Z,78.10
2018-01-30T12:08:40.843Z,78.30
2018-01-30T12:11:08.412Z,78.40
2018-01-30T12:13:36.051Z,78.30
2018-01-30T12:16:03.599Z,78.00
2018-01-30T12:18:31.138Z,78.10
2018-01-30T12:20:59.103Z,78.00
2018-01-30T12:23:27.048Z,78.10
2018-01-30T12:25:54.656Z,78.10
2018-01-30T12:28:22.255Z,77.70
2018-01-30T12:30:49.869Z,77.70
2018-01-30T12:33:17.498Z,77.80
2018-01-30T12:35:45.088Z,77.40
2018-01-30T12:38:14.770Z,76.40
2018-01-30T12:40:42.711Z,76.50
2018-01-30T12:43:10.310Z,76.50
2018-01-30T12:45:37.916Z,76.00
2018-01-30T12:48:05.530Z,75.90
2018-01-30T12:50:33.075Z,76.10
2018-01-30T12:53:00.638Z,75.70
2018-01-30T12:55:28.223Z,75.30
2018-01-30T12:57:56.761Z,75.40
2018-01-30T13:00:24.369Z,75.10
2018-01-30T13:02:51.946Z,75.40
2018-01-30T13:05:19.564Z,75.50
2018-01-30T13:07:47.479Z,75.30
2018-01-30T13:10:16.143Z,75.20
2018-01-30T13:12:43.754Z,74.80
2018-01-30T13:15:11.285Z,74.70
2018-01-30T13:17:38.798Z,75.20
2018-01-30T13:20:06.375Z,74.90
2018-01-30T13:22:33.999Z,74.80
2018-01-30T13:25:01.926Z,74.70
2018-01-30T13:27:29.497Z,74.70
2018-01-30T13:29:57.101Z,74.80
2018-01-30T13:32:24.637Z,74.30
2018-01-30T13:34:52.204Z,74.30
2018-01-30T13:37:21.230Z,74.70
2018-01-30T13:39:48.804Z,74.70
2018-01-30T13:42:16.450Z,74.70
2018-01-30T13:44:43.973Z,74.70
2018-01-30T13:47:11.919Z,74.70
2018-01-30T13:49:39.453Z,74.70
2018-01-30T13:52:07.055Z,74.90
2018-01-30T13:54:35.000Z,74.90
2018-01-30T13:57:02.603Z,74.90
2018-01-30T13:59:30.240Z,74.80
2018-01-30T14:01:57.763Z,74.90
2018-01-30T14:04:25.315Z,74.60
2018-01-30T14:06:52.915Z,74.70
2018-01-30T14:09:20.468Z,74.80
2018-01-30T14:11:48.003Z,74.70
2018-01-30T14:14:15.549Z,74.20
2018-01-30T14:16:43.155Z,74.30
2018-01-30T14:19:10.686Z,74.30
2018-01-30T14:21:38.288Z,74.40
2018-01-30T14:24:05.831Z,74.40
2018-01-30T14:26:33.815Z,74.40
2018-01-30T14:29:01.467Z,74.40
2018-01-30T14:31:29.065Z,74.60
2018-01-30T14:33:56.619Z,74.50
2018-01-30T14:36:24.152Z,74.60
2018-01-30T14:38:51.727Z,74.80
2018-01-30T14:41:19.357Z,74.80
2018-01-30T14:43:46.923Z,74.50
2018-01-30T14:46:14.515Z,74.60
2018-01-30T14:48:42.073Z,74.70
2018-01-30T14:51:09.713Z,74.70
2018-01-30T14:53:37.288Z,74.70
2018-01-30T14:56:04.869Z,74.90
2018-01-30T14:58:32.478Z,75.30
2018-01-30T15:01:00.073Z,75.40
2018-01-30T15:03:27.631Z,75.50
2018-01-30T15:05:55.266Z,75.50
2018-01-30T15:08:22.847Z,75.70
2018-01-30T15:10:50.402Z,75.40
2018-01-30T15:13:18.018Z,75.50
2018-01-30T15:15:45.982Z,75.20
2018-01-30T15:18:13.600Z,75.20
2018-01-30T15:20:41.143Z,75.00
2018-01-30T15:23:08.666Z,75.30
2018-01-30T15:25:36.231Z,75.20
2018-01-30T15:28:03.806Z,75.20
2018-01-30T15:30:31.403Z,75.30
2018-01-30T15:32:58.962Z,75.60
2018-01-30T15:35:27.400Z,76.00
2018-01-30T15:37:55.013Z,76.00
2018-01-30T15:40:22.555Z,76.40
2018-01-30T15:42:50.150Z,76.70
2018-01-30T15:45:18.155Z,77.00
2018-01-30T15:47:45.699Z,77.10
2018-01-30T15:50:13.273Z,77.40
2018-01-30T15:52:40.852Z,77.40
2018-01-30T15:55:08.375Z,77.70
2018-01-30T15:57:35.927Z,78.00
2018-01-30T16:00:03.479Z,78.10
2018-01-30T16:02:31.465Z,78.60
2018-01-30T16:04:59.075Z,78.60
2018-01-30T16:07:26.870Z,78.60
2018-01-30T16:09:54.527Z,78.60
2018-01-30T16:12:22.567Z,78.70
2018-01-30T16:14:50.200Z,78.70
2018-01-30T16:17:17.789Z,78.80
2018-01-30T16:19:45.911Z,78.60
2018-01-30T16:22:13.504Z,78.60
2018-01-30T16:24:41.195Z,78.50
2018-01-30T16:27:08.914Z,78.50
2018-01-30T16:29:36.548Z,78.70
2018-01-30T16:32:04.175Z,78.60
2018-01-30T16:34:32.220Z,78.80
2018-01-30T16:36:59.839Z,78.80
2018-01-30T16:39:27.442Z,78.90
2018-01-30T16:41:55.064Z,79.00
2018-01-30T16:44:22.697Z,79.30
2018-01-30T16:46:50.253Z,79.20
2018-01-30T16:49:17.943Z,79.30
2018-01-30T16:51:45.536Z,79.30
2018-01-30T16:54:13.151Z,79.30
2018-01-30T16:56:40.748Z,79.40
2018-01-30T16:59:08.409Z,79.40
2018-01-30T17:01:35.939Z,79.40
2018-01-30T17:04:03.639Z,79.50
2018-01-30T17:06:31.338Z,79.50
2018-01-30T17:08:58.999Z,79.50
2018-01-30T17:11:27.058Z,79.30
2018-01-30T17:13:54.996Z,79.30
2018-01-30T17:16:22.605Z,79.30
2018-01-30T17:18:50.215Z,79.20
2018-01-30T17:21:18.286Z,79.10
2018-01-30T17:23:45.990Z,79.10
2018-01-30T17:26:13.708Z,78.90
2018-01-30T17:28:41.448Z,78.90
2018-01-30T17:31:09.045Z,78.80
2018-01-30T17:33:36.764Z,78.70
2018-01-30T17:36:04.353Z,78.50
2018-01-30T17:38:31.944Z,78.50
2018-01-30T17:41:00.587Z,78.50
2018-01-30T17:43:28.130Z,78.40
2018-01-30T17:45:55.705Z,78.40
2018-01-30T17:48:23.287Z,78.50
2018-01-30T17:50:50.917Z,78.60
2018-01-30T17:53:18.468Z,78.60
2018-01-30T17:55:46.139Z,78.70
2018-01-30T17:58:13.826Z,78.80
2018-01-30T18:00:42.025Z,78.70
2018-01-30T18:03:12.313Z,78.70
2018-01-30T18:05:39.985Z,78.80
2018-01-30T18:08:08.104Z,78.80
2018-01-30T18:10:35.808Z,78.80
2018-01-30T18:13:03.558Z,78.70
2018-01-30T18:15:32.148Z,78.90
2018-01-30T18:18:00.259Z,78.90
2018-01-30T18:20:27.931Z,79.00
2018-01-30T18:22:55.488Z,79.10
2018-01-30T18:25:23.142Z,78.90
2018-01-30T18:27:50.726Z,79.00
2018-01-30T18:30:18.407Z,79.00
2018-01-30T18:32:46.280Z,79.00
2018-01-30T18:35:14.043Z,79.00
2018-01-30T18:37:42.540Z,78.90
2018-01-30T18:40:10.132Z,79.00
2018-01-30T18:42:38.135Z,79.10
2018-01-30T18:45:05.801Z,79.20
2018-01-30T18:47:33.468Z,79.30
2018-01-30T18:50:01.061Z,79.30
2018-01-30T18:52:28.714Z,79.50
2018-01-30T18:54:57.241Z,79.60
2018-01-30T18:57:25.035Z,79.80
2018-01-30T18:59:53.772Z,79.80
2018-01-30T19:02:21.504Z,79.80
2018-01-30T19:04:49.491Z,79.80
2018-01-30T19:07:17.131Z,79.80
2018-01-30T19:09:44.835Z,80.00
2018-01-30T19:12:12.560Z,80.10
2018-01-30T19:14:40.221Z,80.10
2018-01-30T19:17:11.518Z,80.20
2018-01-30T19:19:39.192Z,80.10
2018-01-30T19:22:06.753Z,80.00
2018-01-30T19:24:34.371Z,80.10
2018-01-30T19:27:02.053Z,80.10
2018-01-30T19:29:29.702Z,80.20
2018-01-30T19:31:57.312Z,80.20
2018-01-30T19:34:24.954Z,80.10
2018-01-30T19:36:52.583Z,80.10
2018-01-30T19:39:20.255Z,80.20
2018-01-30T19:41:47.882Z,80.20
2018-01-30T19:44:15.865Z,80.10
2018-01-30T19:46:43.421Z,80.10
2018-01-30T19:49:11.014Z,80.20
2018-01-30T19:51:38.612Z,80.20
2018-01-30T19:54:06.714Z,80.10
2018-01-30T19:56:34.402Z,80.20
2018-01-30T19:59:02.025Z,80.30
2018-01-30T20:01:29.560Z,80.30
2018-01-30T20:03:57.170Z,80.20
2018-01-30T20:06:24.849Z,80.20
2018-01-30T20:08:52.541Z,80.20
2018-01-30T20:11:20.248Z,80.20
2018-01-30T20:13:47.915Z,80.30
2018-01-30T20:16:15.611Z,80.20
2018-01-30T20:18:43.158Z,80.30
2018-01-30T20:21:10.692Z,80.20
2018-01-30T20:23:38.419Z,80.00
2018-01-30T20:26:06.247Z,80.30
2018-01-30T20:28:33.925Z,80.40
2018-01-30T20:31:01.596Z,80.40
2018-01-30T20:33:29.663Z,80.30
2018-01-30T20:35:57.290Z,80.30
2018-01-30T20:38:25.001Z,80.40
2018-01-30T20:40:52.615Z,80.50
2018-01-30T20:43:20.207Z,80.60
2018-01-30T20:45:48.234Z,80.50
2018-01-30T20:48:17.087Z,80.50
2018-01-30T20:50:44.777Z,80.80
2018-01-30T20:53:12.413Z,80.80
2018-01-30T20:55:40.034Z,80.90
2018-01-30T20:58:08.071Z,81.00
2018-01-30T21:00:35.784Z,81.00
2018-01-30T21:03:03.817Z,81.10
2018-01-30T21:05:31.409Z,81.10
2018-01-30T21:07:58.994Z,81.30
2018-01-30T21:10:26.937Z,81.30
2018-01-30T21:12:54.962Z,80.90
2018-01-30T21:15:22.548Z,80.90
2018-01-30T21:17:50.163Z,80.60
2018-01-30T21:20:17.816Z,80.80
2018-01-30T21:22:45.476Z,80.60
2018-01-30T21:25:13.147Z,80.60
2018-01-30T21:27:40.813Z,80.90
2018-01-30T21:30:08.615Z,80.80
2018-01-30T21:32:36.298Z,80.40
2018-01-30T21:35:03.830Z,79.90
2018-01-30T21:37:31.518Z,80.10
2018-01-30T21:39:59.552Z,80.40
2018-01-30T21:42:27.198Z,80.40
2018-01-30T21:44:55.762Z,80.50
2018-01-30T21:47:23.352Z,80.40
2018-01-30T21:49:50.974Z,80.50
2018-01-30T21:52:18.612Z,80.80
2018-01-30T21:54:46.289Z,80.90
2018-01-30T21:57:13.968Z,81.00
2018-01-30T21:59:41.545Z,81.00
2018-01-30T22:02:09.197Z,81.10
2018-01-30T22:04:36.832Z,81.40
2018-01-30T22:07:04.449Z,81.30
2018-01-30T22:09:32.501Z,81.50
2018-01-30T22:12:00.144Z,81.50
2018-01-30T22:14:27.970Z,81.40
2018-01-30T22:16:55.584Z,81.40
2018-01-30T22:19:23.244Z,81.50
2018-01-30T22:21:50.977Z,81.50
2018-01-30T22:24:18.597Z,81.40
2018-01-30T22:26:46.261Z,81.00
2018-01-30T22:29:13.945Z,81.00
2018-01-30T22:31:41.491Z,81.00
2018-01-30T22:34:09.130Z,81.00
2018-01-30T22:36:42.609Z,81.10
2018-01-30T22:39:10.209Z,81.30
2018-01-30T22:41:37.829Z,81.30
2018-01-30T22:44:05.467Z,81.30
2018-01-30T22:46:33.067Z,81.40
